createdAt,value
2022-10-27T00:00:00.968Z,996.7602
2022-10-27T00:01:01.118Z,996.7604
2022-10-27T00:02:01.250Z,996.7892
2022-10-27T00:03:00.647Z,996.7892
2022-10-27T00:04:00.541Z,996.8687
2022-10-27T00:05:00.696Z,996.7248
2022-10-27T00:06:00.842Z,996.8041
2022-10-27T00:07:00.992Z,996.7756
2022-10-27T00:08:01.149Z,996.7972
2022-10-27T00:09:00.297Z,996.8336
2022-10-27T00:10:00.433Z,996.697
2022-10-27T00:11:00.589Z,996.8772
2022-10-27T00:12:00.737Z,996.8054
2022-10-27T00:13:00.893Z,996.7982
2022-10-27T00:14:01.047Z,996.7695
2022-10-27T00:15:01.182Z,996.8847
2022-10-27T00:16:00.335Z,996.7268
2022-10-27T00:17:00.481Z,996.7702
2022-10-27T00:18:00.624Z,996.8352
2022-10-27T00:19:00.778Z,996.7492
2022-10-27T00:20:01.056Z,997.0085
2022-10-27T00:21:01.069Z,996.9586
2022-10-27T00:22:01.214Z,996.7645
2022-10-27T00:23:00.361Z,996.8796
2022-10-27T00:24:00.518Z,996.8511
2022-10-27T00:25:00.645Z,997.0382
2022-10-27T00:26:00.819Z,996.7938
2022-10-27T00:27:00.946Z,996.8511
2022-10-27T00:28:01.088Z,996.8511
2022-10-27T00:29:01.241Z,996.8226
2022-10-27T00:30:00.384Z,996.7007
2022-10-27T00:31:00.556Z,996.9236
2022-10-27T00:32:00.691Z,996.9665
2022-10-27T00:33:00.835Z,996.9665
2022-10-27T00:34:00.989Z,996.8514
2022-10-27T00:35:01.151Z,996.9665
2022-10-27T00:36:00.276Z,996.9665
2022-10-27T00:37:00.426Z,997.0024
2022-10-27T00:38:00.566Z,996.8514
2022-10-27T00:39:00.719Z,996.9665
2022-10-27T00:40:00.891Z,996.8733
2022-10-27T00:41:01.019Z,997.0532
2022-10-27T00:42:01.154Z,996.9384
2022-10-27T00:43:00.307Z,996.996
2022-10-27T00:44:00.456Z,997.0034
2022-10-27T00:45:00.658Z,997.1045
2022-10-27T00:46:00.762Z,997.0327
2022-10-27T00:47:00.906Z,996.9468
2022-10-27T00:48:01.044Z,996.9397
2022-10-27T00:49:01.195Z,996.9974
2022-10-27T00:50:00.373Z,996.9689
2022-10-27T00:51:00.511Z,997.1272
2022-10-27T00:52:00.661Z,997.1488
2022-10-27T00:53:00.809Z,996.9624
2022-10-27T00:54:00.955Z,997.0486
2022-10-27T00:55:01.135Z,997.056
2022-10-27T00:56:01.241Z,997.0489
2022-10-27T00:57:00.398Z,997.0992
2022-10-27T00:58:00.536Z,997.1783
2022-10-27T00:59:00.684Z,997.1496
2022-10-27T01:00:00.857Z,997.1496
2022-10-27T01:01:01.087Z,997.1783
2022-10-27T01:02:01.137Z,997.1211
2022-10-27T01:03:00.290Z,997.2218
2022-10-27T01:04:00.423Z,997.1357
2022-10-27T01:05:00.601Z,997.1071
2022-10-27T01:06:00.713Z,997.2436
2022-10-27T01:07:00.868Z,997.0929
2022-10-27T01:08:01.021Z,997.0787
2022-10-27T01:09:01.139Z,997.0787
2022-10-27T01:10:00.317Z,997.2794
2022-10-27T01:11:00.437Z,997.1287
2022-10-27T01:12:00.585Z,997.2149
2022-10-27T01:13:00.738Z,997.3155
2022-10-27T01:14:00.885Z,997.1794
2022-10-27T01:15:01.052Z,997.1794
2022-10-27T01:16:01.210Z,997.2371
2022-10-27T01:17:00.340Z,997.0722
2022-10-27T01:18:00.488Z,997.1154
2022-10-27T01:19:00.641Z,997.1728
2022-10-27T01:20:00.788Z,997.2015
2022-10-27T01:21:00.955Z,997.2303
2022-10-27T01:22:01.167Z,997.1728
2022-10-27T01:23:01.241Z,997.2521
2022-10-27T01:24:00.399Z,997.1947
2022-10-27T01:25:00.537Z,997.2521
2022-10-27T01:26:00.686Z,997.1947
2022-10-27T01:27:00.843Z,997.1446
2022-10-27T01:28:00.988Z,997.1804
2022-10-27T01:29:01.160Z,997.2234
2022-10-27T01:30:00.280Z,997.4174
2022-10-27T01:31:00.424Z,997.4103
2022-10-27T01:32:00.578Z,997.0803
2022-10-27T01:33:00.717Z,997.267
2022-10-27T01:34:00.892Z,997.303
2022-10-27T01:35:01.024Z,997.2744
2022-10-27T01:36:01.168Z,997.2744
2022-10-27T01:37:00.322Z,997.1956
2022-10-27T01:38:00.463Z,997.203
2022-10-27T01:39:00.640Z,997.2174
2022-10-27T01:40:00.757Z,997.2677
2022-10-27T01:41:00.915Z,997.1101
2022-10-27T01:42:01.068Z,997.2178
2022-10-27T01:43:01.214Z,997.4115
2022-10-27T01:44:00.377Z,997.1964
2022-10-27T01:45:00.497Z,997.3112
2022-10-27T01:46:00.645Z,997.297
2022-10-27T01:47:00.794Z,997.3257
2022-10-27T01:48:00.953Z,996.9887
2022-10-27T01:49:01.113Z,997.0964
2022-10-27T01:50:01.296Z,997.1827
2022-10-27T01:51:02.010Z,997.1827
2022-10-27T01:52:00.547Z,997.2401
2022-10-27T01:53:00.693Z,997.1183
2022-10-27T01:54:00.855Z,997.0967
2022-10-27T01:55:00.988Z,997.1041
2022-10-27T01:56:01.133Z,997.0399
2022-10-27T01:57:00.276Z,997.0112
2022-10-27T01:58:00.422Z,996.9754
2022-10-27T01:59:00.594Z,997.0112
2022-10-27T02:00:00.719Z,997.1188
2022-10-27T02:01:00.969Z,997.1762
2022-10-27T02:02:01.021Z,997.2048
2022-10-27T02:03:01.151Z,997.0472
2022-10-27T02:04:00.306Z,997.1332
2022-10-27T02:05:00.441Z,997.0975
2022-10-27T02:06:00.627Z,997.2266
2022-10-27T02:07:00.737Z,997.1048
2022-10-27T02:08:00.889Z,997.2985
2022-10-27T02:09:01.038Z,997.1122
2022-10-27T02:10:01.177Z,997.1769
2022-10-27T02:11:00.334Z,997.385
2022-10-27T02:12:00.496Z,997.3421
2022-10-27T02:13:00.618Z,997.385
2022-10-27T02:14:00.771Z,997.3781
2022-10-27T02:15:00.922Z,997.4068
2022-10-27T02:16:01.052Z,997.2277
2022-10-27T02:17:01.233Z,997.2564
2022-10-27T02:18:00.360Z,997.2635
2022-10-27T02:19:00.501Z,997.3063
2022-10-27T02:20:00.667Z,997.385
2022-10-27T02:21:00.870Z,997.421
2022-10-27T02:22:00.983Z,997.3923
2022-10-27T02:23:01.121Z,997.2348
2022-10-27T02:24:00.265Z,997.4284
2022-10-27T02:25:00.419Z,997.2637
2022-10-27T02:26:00.551Z,997.3211
2022-10-27T02:27:00.728Z,997.4217
2022-10-27T02:28:00.861Z,997.3644
2022-10-27T02:29:01.000Z,997.3215
2022-10-27T02:30:01.149Z,997.3215
2022-10-27T02:31:00.314Z,997.3215
2022-10-27T02:32:00.457Z,997.3646
2022-10-27T02:33:00.602Z,997.3291
2022-10-27T02:34:00.744Z,997.3291
2022-10-27T02:35:00.891Z,997.4079
2022-10-27T02:36:01.037Z,997.3293
2022-10-27T02:37:01.212Z,997.3151
2022-10-27T02:38:00.327Z,997.3367
2022-10-27T02:39:00.477Z,997.4226
2022-10-27T02:40:00.630Z,997.4941
2022-10-27T02:41:00.774Z,997.3511
2022-10-27T02:42:00.948Z,997.3656
2022-10-27T02:43:01.079Z,997.4516
2022-10-27T02:44:01.232Z,997.3157
2022-10-27T02:45:00.380Z,997.4374
2022-10-27T02:46:00.524Z,997.3585
2022-10-27T02:47:02.108Z,997.4373
2022-10-27T02:48:00.822Z,997.4589
2022-10-27T02:49:00.969Z,997.4373
2022-10-27T02:50:01.126Z,997.3656
2022-10-27T02:51:00.262Z,997.5948
2022-10-27T02:52:00.446Z,997.5661
2022-10-27T02:53:00.556Z,997.4802
2022-10-27T02:54:00.709Z,997.6162
2022-10-27T02:55:00.867Z,997.559
2022-10-27T02:56:01.010Z,997.5232
2022-10-27T02:57:01.177Z,997.4589
2022-10-27T02:58:00.296Z,997.6165
2022-10-27T02:59:00.440Z,997.6021
2022-10-27T03:00:00.604Z,997.4376
2022-10-27T03:01:00.839Z,997.688
2022-10-27T03:02:00.992Z,997.4876
2022-10-27T03:03:01.022Z,997.4589
2022-10-27T03:04:01.158Z,997.5519
2022-10-27T03:05:00.312Z,997.5876
2022-10-27T03:06:00.449Z,997.5088
2022-10-27T03:07:00.614Z,997.559
2022-10-27T03:08:00.740Z,997.452
2022-10-27T03:09:00.882Z,997.667
2022-10-27T03:10:01.068Z,997.667
2022-10-27T03:11:01.180Z,997.5671
2022-10-27T03:12:00.352Z,997.6745
2022-10-27T03:13:00.472Z,997.5674
2022-10-27T03:14:00.620Z,997.5674
2022-10-27T03:15:00.788Z,997.6892
2022-10-27T03:16:00.924Z,997.539
2022-10-27T03:17:01.088Z,997.4818
2022-10-27T03:18:01.214Z,997.5317
2022-10-27T03:19:00.357Z,997.5674
2022-10-27T03:20:00.672Z,997.5674
2022-10-27T03:21:00.656Z,997.4957
2022-10-27T03:22:00.814Z,997.6675
2022-10-27T03:23:00.939Z,997.596
2022-10-27T03:24:01.100Z,997.5243
2022-10-27T03:25:01.244Z,997.4384
2022-10-27T03:26:00.390Z,997.4815
2022-10-27T03:27:00.555Z,997.3812
2022-10-27T03:28:00.680Z,997.4886
2022-10-27T03:29:00.831Z,997.5674
2022-10-27T03:30:00.976Z,997.553
2022-10-27T03:31:01.121Z,997.5317
2022-10-27T03:32:00.291Z,997.5175
2022-10-27T03:33:00.401Z,997.4818
2022-10-27T03:34:00.569Z,997.618
2022-10-27T03:35:00.700Z,997.5321
2022-10-27T03:36:00.858Z,997.4678
2022-10-27T03:37:01.018Z,997.4964
2022-10-27T03:38:01.147Z,997.6395
2022-10-27T03:39:00.290Z,997.6754
2022-10-27T03:40:00.442Z,997.5612
2022-10-27T03:41:00.578Z,997.5255
2022-10-27T03:42:00.744Z,997.6257
2022-10-27T03:43:00.880Z,997.5758
2022-10-27T03:44:01.037Z,997.5758
2022-10-27T03:45:01.178Z,997.6403
2022-10-27T03:46:01.119Z,997.6118
2022-10-27T03:47:00.503Z,997.8264
2022-10-27T03:48:00.613Z,997.6621
2022-10-27T03:49:00.761Z,997.6478
2022-10-27T03:50:00.910Z,997.7624
2022-10-27T03:51:01.068Z,997.5622
2022-10-27T03:52:01.244Z,997.6839
2022-10-27T03:53:00.352Z,997.9098
2022-10-27T03:54:00.497Z,997.9098
2022-10-27T03:55:00.656Z,997.8841
2022-10-27T03:56:00.793Z,997.584
2022-10-27T03:57:00.972Z,997.8127
2022-10-27T03:58:01.088Z,997.6483
2022-10-27T03:59:01.236Z,997.777
2022-10-27T04:00:00.388Z,997.777
2022-10-27T04:01:00.596Z,997.7772
2022-10-27T04:02:03.447Z,997.8774
2022-10-27T04:03:00.826Z,997.7418
2022-10-27T04:04:00.974Z,997.7205
2022-10-27T04:05:01.140Z,997.8849
2022-10-27T04:06:00.267Z,997.9036
2022-10-27T04:07:00.445Z,997.6994
2022-10-27T04:08:00.563Z,997.8565
2022-10-27T04:09:00.757Z,997.8822
2022-10-27T04:10:00.862Z,997.7993
2022-10-27T04:11:01.019Z,997.7422
2022-10-27T04:12:01.193Z,997.7993
2022-10-27T04:13:00.304Z,997.7992
2022-10-27T04:14:00.463Z,997.8891
2022-10-27T04:15:00.605Z,997.8705
2022-10-27T04:16:00.760Z,997.799
2022-10-27T04:17:00.928Z,997.9031
2022-10-27T04:18:02.491Z,997.8202
2022-10-27T04:19:01.252Z,997.8202
2022-10-27T04:20:00.373Z,997.8559
2022-10-27T04:21:00.496Z,997.8488
2022-10-27T04:22:00.677Z,997.9033
2022-10-27T04:23:00.838Z,997.7848
2022-10-27T04:24:00.958Z,997.8064
2022-10-27T04:25:01.118Z,997.8636
2022-10-27T04:26:00.256Z,997.9036
2022-10-27T04:27:00.489Z,997.885
2022-10-27T04:28:00.588Z,997.8564
2022-10-27T04:29:00.705Z,998.0179
2022-10-27T04:30:00.845Z,997.9893
2022-10-27T04:31:00.994Z,997.8208
2022-10-27T04:32:01.137Z,997.8423
2022-10-27T04:33:00.318Z,997.9966
2022-10-27T04:34:00.428Z,998.0109
2022-10-27T04:35:00.571Z,998.0252
2022-10-27T04:36:00.723Z,998.0682
2022-10-27T04:37:00.857Z,997.8825
2022-10-27T04:38:01.025Z,997.8642
2022-10-27T04:39:01.154Z,998.0254
2022-10-27T04:40:00.300Z,998.054
2022-10-27T04:41:00.439Z,998.0041
2022-10-27T04:42:00.552Z,997.9328
2022-10-27T04:43:00.741Z,997.9615
2022-10-27T04:44:00.835Z,997.9473
2022-10-27T04:45:00.980Z,998.0189
2022-10-27T04:46:01.117Z,997.8976
2022-10-27T04:47:00.265Z,998.0263
2022-10-27T04:48:00.446Z,997.9477
2022-10-27T04:49:00.555Z,997.9977
2022-10-27T04:50:00.723Z,998.1263
2022-10-27T04:51:00.860Z,998.2276
2022-10-27T04:52:01.077Z,998.2276
2022-10-27T04:53:01.168Z,997.8976
2022-10-27T04:54:00.301Z,998.2961
2022-10-27T04:55:00.451Z,997.9191
2022-10-27T04:56:00.584Z,998.2961
2022-10-27T04:57:00.740Z,997.9549
2022-10-27T04:58:04.283Z,998.0265
2022-10-27T04:59:01.033Z,998.0551
2022-10-27T05:00:01.175Z,998.1336
2022-10-27T05:01:00.322Z,997.9124
2022-10-27T05:02:00.643Z,998.2065
2022-10-27T05:03:00.724Z,998.0694
2022-10-27T05:04:00.768Z,998.1051
2022-10-27T05:05:00.913Z,998.1265
2022-10-27T05:06:01.065Z,998.0694
2022-10-27T05:07:01.228Z,997.9695
2022-10-27T05:08:00.348Z,998.0552
2022-10-27T05:09:00.502Z,997.991
2022-10-27T05:10:00.653Z,998.1338
2022-10-27T05:11:00.801Z,997.9483
2022-10-27T05:12:00.982Z,998.1996
2022-10-27T05:13:01.094Z,998.1711
2022-10-27T05:14:01.241Z,998.2425
2022-10-27T05:15:00.389Z,997.9556
2022-10-27T05:16:00.538Z,997.9841
2022-10-27T05:17:00.755Z,998.2567
2022-10-27T05:18:00.842Z,998.1783
2022-10-27T05:19:00.993Z,998.1854
2022-10-27T05:20:01.131Z,998.2211
2022-10-27T05:21:00.295Z,998.077
2022-10-27T05:22:00.460Z,998.077
2022-10-27T05:23:00.582Z,998.2568
2022-10-27T05:24:00.740Z,998.1198
2022-10-27T05:25:00.886Z,998.1783
2022-10-27T05:26:01.037Z,998.2896
2022-10-27T05:27:01.222Z,998.2497
2022-10-27T05:28:00.323Z,998.3111
2022-10-27T05:29:00.468Z,998.1126
2022-10-27T05:30:00.609Z,998.2068
2022-10-27T05:31:00.768Z,998.2683
2022-10-27T05:32:00.955Z,998.0628
2022-10-27T05:33:01.088Z,998.3683
2022-10-27T05:34:01.232Z,998.2429
2022-10-27T05:35:00.379Z,998.1346
2022-10-27T05:36:00.524Z,998.0633
2022-10-27T05:37:00.693Z,998.0847
2022-10-27T05:38:00.812Z,998.0706
2022-10-27T05:39:00.965Z,998.1062
2022-10-27T05:40:01.109Z,998.2433
2022-10-27T05:41:00.258Z,998.2147
2022-10-27T05:42:00.422Z,998.276
2022-10-27T05:43:00.571Z,998.2004
2022-10-27T05:44:00.706Z,998.2903
2022-10-27T05:45:00.852Z,998.2905
2022-10-27T05:46:01.020Z,998.2294
2022-10-27T05:47:01.139Z,998.2223
2022-10-27T05:48:00.278Z,998.2579
2022-10-27T05:49:00.428Z,998.0923
2022-10-27T05:50:00.565Z,998.2007
2022-10-27T05:51:00.737Z,998.0993
2022-10-27T05:52:00.860Z,998.1278
2022-10-27T05:53:01.017Z,998.1792
2022-10-27T05:54:01.158Z,998.2291
2022-10-27T05:55:00.300Z,998.0636
2022-10-27T05:56:00.472Z,998.2648
2022-10-27T05:57:00.604Z,998.319
2022-10-27T05:58:00.761Z,998.2905
2022-10-27T05:59:00.940Z,998.2905
2022-10-27T06:00:01.035Z,998.2149
2022-10-27T06:01:01.255Z,998.2834
2022-10-27T06:02:00.479Z,998.2292
2022-10-27T06:03:00.505Z,998.362
2022-10-27T06:04:00.641Z,998.1938
2022-10-27T06:05:00.785Z,998.2652
2022-10-27T06:06:00.933Z,998.3694
2022-10-27T06:07:01.085Z,998.4406
2022-10-27T06:08:01.259Z,998.0427
2022-10-27T06:09:00.385Z,998.2153
2022-10-27T06:10:00.532Z,998.3694
2022-10-27T06:11:00.677Z,998.4406
2022-10-27T06:12:00.821Z,998.4692
2022-10-27T06:13:01.144Z,998.1867
2022-10-27T06:14:01.138Z,998.2835
2022-10-27T06:15:00.271Z,998.4546
2022-10-27T06:16:00.425Z,998.3048
2022-10-27T06:17:00.579Z,998.305
2022-10-27T06:18:00.751Z,998.4262
2022-10-27T06:19:00.877Z,998.2694
2022-10-27T06:20:01.027Z,998.519
2022-10-27T06:21:01.167Z,998.4406
2022-10-27T06:22:00.318Z,998.4977
2022-10-27T06:23:00.501Z,998.5548
2022-10-27T06:24:00.708Z,998.4835
2022-10-27T06:25:00.766Z,998.4123
2022-10-27T06:26:00.928Z,998.4551
2022-10-27T06:27:01.083Z,998.5834
2022-10-27T06:28:01.246Z,998.4764
2022-10-27T06:29:00.369Z,998.3908
2022-10-27T06:30:00.519Z,998.512
2022-10-27T06:31:00.657Z,998.562
2022-10-27T06:32:00.801Z,998.512
2022-10-27T06:33:00.969Z,998.6332
2022-10-27T06:34:01.122Z,998.6689
2022-10-27T06:35:01.244Z,998.5548
2022-10-27T06:36:00.399Z,998.7259
2022-10-27T06:37:00.544Z,998.7615
2022-10-27T06:38:00.692Z,998.7116
2022-10-27T06:39:00.870Z,998.5833
2022-10-27T06:40:00.992Z,998.7472
2022-10-27T06:41:01.140Z,998.6689
2022-10-27T06:42:00.283Z,998.8971
2022-10-27T06:43:08.356Z,998.6903
2022-10-27T06:44:00.607Z,998.6546
2022-10-27T06:45:00.733Z,998.783
2022-10-27T06:46:01.882Z,998.8614
2022-10-27T06:47:01.036Z,998.897
2022-10-27T06:48:01.186Z,998.7472
2022-10-27T06:49:00.398Z,998.6331
2022-10-27T06:50:00.472Z,998.8756
2022-10-27T06:51:00.621Z,998.8256
2022-10-27T06:52:00.763Z,998.8755
2022-10-27T06:53:00.940Z,998.7899
2022-10-27T06:54:01.050Z,998.9611
2022-10-27T06:55:01.199Z,998.9111
2022-10-27T06:56:00.354Z,998.797
2022-10-27T06:57:00.529Z,998.8469
2022-10-27T06:58:00.690Z,998.9611
2022-10-27T06:59:00.814Z,998.8826
2022-10-27T07:00:00.960Z,998.8754
2022-10-27T07:01:01.110Z,998.8825
2022-10-27T07:02:01.387Z,998.911
2022-10-27T07:03:00.482Z,998.6828
2022-10-27T07:04:00.577Z,998.9182
2022-10-27T07:05:00.705Z,998.8181
2022-10-27T07:06:00.854Z,998.7825
2022-10-27T07:07:01.006Z,998.8681
2022-10-27T07:08:01.146Z,998.8538
2022-10-27T07:09:02.374Z,998.7324
2022-10-27T07:10:00.443Z,998.9249
2022-10-27T07:11:00.586Z,998.9034
2022-10-27T07:12:00.740Z,998.9819
2022-10-27T07:13:00.873Z,998.6891
2022-10-27T07:14:01.050Z,998.9317
2022-10-27T07:15:01.175Z,998.7673
2022-10-27T07:16:00.316Z,998.8456
2022-10-27T07:17:00.457Z,998.9884
2022-10-27T07:18:00.900Z,998.9526
2022-10-27T07:19:00.778Z,998.9955
2022-10-27T07:20:00.905Z,999.0669
2022-10-27T07:21:01.057Z,998.7811
2022-10-27T07:22:01.210Z,999.0096
2022-10-27T07:23:00.356Z,999.0166
2022-10-27T07:24:00.531Z,998.8806
2022-10-27T07:25:00.659Z,998.9519
2022-10-27T07:26:00.799Z,998.8659
2022-10-27T07:27:00.965Z,998.9445
2022-10-27T07:28:01.112Z,999.0302
2022-10-27T07:29:01.269Z,998.9586
2022-10-27T07:30:00.397Z,999.0373
2022-10-27T07:31:00.548Z,999.1732
2022-10-27T07:32:00.700Z,999.0086
2022-10-27T07:33:00.852Z,998.8369
2022-10-27T07:34:01.108Z,998.8797
2022-10-27T07:35:01.146Z,998.8223
2022-10-27T07:36:00.299Z,998.7792
2022-10-27T07:37:00.451Z,998.7935
2022-10-27T07:38:00.605Z,998.7434
2022-10-27T07:39:00.761Z,998.7004
2022-10-27T07:40:00.897Z,998.8149
2022-10-27T07:41:01.097Z,998.7648
2022-10-27T07:42:01.193Z,998.7861
2022-10-27T07:43:05.269Z,998.7789
2022-10-27T07:44:00.500Z,998.829
2022-10-27T07:45:00.655Z,998.8933
2022-10-27T07:46:00.853Z,998.8216
2022-10-27T07:47:00.937Z,998.936
2022-10-27T07:48:01.082Z,998.807
2022-10-27T07:49:01.261Z,998.7782
2022-10-27T07:50:00.376Z,998.8069
2022-10-27T07:51:00.552Z,998.7996
2022-10-27T07:52:00.670Z,998.8784
2022-10-27T07:53:00.806Z,998.907
2022-10-27T07:54:00.986Z,998.7922
2022-10-27T07:55:01.112Z,998.7419
2022-10-27T07:56:01.246Z,998.7346
2022-10-27T07:57:00.394Z,998.799
2022-10-27T07:58:00.539Z,998.7128
2022-10-27T07:59:00.752Z,998.727
2022-10-27T08:00:00.833Z,998.8201
2022-10-27T08:01:01.071Z,998.6837
2022-10-27T08:02:01.278Z,998.6261
2022-10-27T08:03:00.279Z,998.6188
2022-10-27T08:04:00.450Z,998.6473
2022-10-27T08:05:00.569Z,998.7046
2022-10-27T08:06:00.716Z,998.7691
2022-10-27T08:07:00.892Z,998.7762
2022-10-27T08:08:01.024Z,998.5535
2022-10-27T08:09:01.175Z,998.6539
2022-10-27T08:10:00.317Z,998.625
2022-10-27T08:11:00.561Z,998.6322
2022-10-27T08:12:00.638Z,998.7542
2022-10-27T08:13:00.775Z,998.9408
2022-10-27T08:14:00.912Z,998.9408
2022-10-27T08:15:01.063Z,998.6822
2022-10-27T08:16:01.219Z,998.6605
2022-10-27T08:17:04.121Z,998.6389
2022-10-27T08:18:00.509Z,998.6675
2022-10-27T08:19:00.692Z,998.7394
2022-10-27T08:20:00.804Z,998.6529
2022-10-27T08:21:00.952Z,998.6169
2022-10-27T08:22:01.097Z,998.7606
2022-10-27T08:23:01.246Z,998.8324
2022-10-27T08:24:00.500Z,998.6884
2022-10-27T08:25:01.833Z,998.8178
2022-10-27T08:26:00.686Z,998.7817
2022-10-27T08:27:00.832Z,998.5802
2022-10-27T08:28:00.981Z,998.6952
2022-10-27T08:29:01.164Z,998.8318
2022-10-27T08:30:00.286Z,998.9397
2022-10-27T08:31:00.425Z,998.8532
2022-10-27T08:32:00.555Z,998.7524
2022-10-27T08:33:00.698Z,998.6588
2022-10-27T08:34:00.863Z,998.8098
2022-10-27T08:35:01.004Z,998.709
2022-10-27T08:36:01.143Z,998.7665
2022-10-27T08:37:00.297Z,998.8241
2022-10-27T08:38:00.447Z,998.8672
2022-10-27T08:39:00.605Z,998.7736
2022-10-27T08:40:00.767Z,998.7591
2022-10-27T08:41:00.892Z,998.7373
2022-10-27T08:42:01.045Z,998.8885
2022-10-27T08:43:01.191Z,998.8884
2022-10-27T08:44:00.347Z,998.8379
2022-10-27T08:45:00.532Z,998.9242
2022-10-27T08:46:00.664Z,998.8665
2022-10-27T08:47:00.787Z,998.9169
2022-10-27T08:48:00.939Z,999.0249
2022-10-27T08:49:01.150Z,998.8735
2022-10-27T08:50:01.238Z,998.7221
2022-10-27T08:51:00.411Z,999.0248
2022-10-27T08:52:00.538Z,998.8949
2022-10-27T08:53:03.932Z,998.7796
2022-10-27T08:54:00.836Z,998.8083
2022-10-27T08:55:00.977Z,998.9596
2022-10-27T08:56:01.143Z,998.7215
2022-10-27T08:57:01.255Z,998.7936
2022-10-27T08:58:00.396Z,999.0387
2022-10-27T08:59:00.545Z,998.8944
2022-10-27T09:00:00.686Z,998.9233
2022-10-27T09:01:00.859Z,998.8656
2022-10-27T09:02:01.132Z,998.8872
2022-10-27T09:03:01.137Z,999.0458
2022-10-27T09:04:00.282Z,998.9591
2022-10-27T09:05:00.430Z,998.9013
2022-10-27T09:06:00.597Z,998.995
2022-10-27T09:07:00.731Z,999.1032
2022-10-27T09:08:00.895Z,998.7134
2022-10-27T09:09:01.041Z,998.8865
2022-10-27T09:10:01.188Z,998.7781
2022-10-27T09:11:00.450Z,998.6698
2022-10-27T09:12:00.488Z,998.814
2022-10-27T09:13:00.633Z,998.8285
2022-10-27T09:14:00.778Z,998.8428
2022-10-27T09:15:00.919Z,998.7706
2022-10-27T09:16:01.096Z,998.9366
2022-10-27T09:17:01.222Z,998.6404
2022-10-27T09:18:00.377Z,998.7414
2022-10-27T09:19:00.516Z,998.9003
2022-10-27T09:20:00.656Z,998.9797
2022-10-27T09:21:00.846Z,998.734
2022-10-27T09:22:00.950Z,998.958
2022-10-27T09:23:01.883Z,998.8423
2022-10-27T09:24:01.247Z,998.8928
2022-10-27T09:25:00.383Z,998.7266
2022-10-27T09:26:00.563Z,998.7482
2022-10-27T09:27:00.688Z,998.6107
2022-10-27T09:28:00.845Z,998.6684
2022-10-27T09:29:00.987Z,998.6755
2022-10-27T09:30:03.452Z,998.7549
2022-10-27T09:31:00.331Z,998.8633
2022-10-27T09:32:00.425Z,998.697
2022-10-27T09:33:00.576Z,998.6824
2022-10-27T09:34:00.716Z,998.7256
2022-10-27T09:35:00.857Z,998.7616
2022-10-27T09:36:01.039Z,998.6819
2022-10-27T09:37:01.162Z,998.8265
2022-10-27T09:38:00.309Z,998.7325
2022-10-27T09:39:00.456Z,998.7469
2022-10-27T09:40:00.603Z,998.812
2022-10-27T09:41:00.772Z,998.66
2022-10-27T09:42:00.901Z,998.8915
2022-10-27T09:43:01.037Z,998.7323
2022-10-27T09:44:01.181Z,998.7539
2022-10-27T09:45:00.323Z,998.696
2022-10-27T09:46:00.498Z,998.7755
2022-10-27T09:47:00.646Z,998.7828
2022-10-27T09:48:00.779Z,998.7393
2022-10-27T09:49:00.918Z,998.7754
2022-10-27T09:50:01.075Z,998.7319
2022-10-27T09:51:01.220Z,998.7681
2022-10-27T09:52:00.367Z,998.7535
2022-10-27T09:53:00.506Z,998.8331
2022-10-27T09:54:00.657Z,998.7679
2022-10-27T09:55:00.814Z,998.8113
2022-10-27T09:56:00.964Z,998.7823
2022-10-27T09:57:01.135Z,998.7098
2022-10-27T09:58:01.263Z,998.746
2022-10-27T09:59:00.425Z,998.6952
2022-10-27T10:00:00.549Z,998.8255
2022-10-27T10:01:00.693Z,998.7892
2022-10-27T10:02:00.877Z,998.6804
2022-10-27T10:04:01.174Z,998.8686
2022-10-27T10:05:00.277Z,998.7525
2022-10-27T10:06:00.430Z,998.6364
2022-10-27T10:07:00.582Z,998.6509
2022-10-27T10:08:00.728Z,998.5203
2022-10-27T10:09:00.896Z,998.6652
2022-10-27T10:10:01.054Z,998.6795
2022-10-27T10:11:01.170Z,998.8243
2022-10-27T10:12:00.375Z,998.5995
2022-10-27T10:13:00.472Z,998.5921
2022-10-27T10:14:00.611Z,998.7806
2022-10-27T10:15:00.788Z,998.6208
2022-10-27T10:16:00.918Z,998.6135
2022-10-27T10:17:01.073Z,998.831
2022-10-27T10:18:01.211Z,998.4753
2022-10-27T10:19:00.356Z,998.468
2022-10-27T10:20:00.515Z,998.4028
2022-10-27T10:21:00.663Z,998.3953
2022-10-27T10:22:00.823Z,998.4314
2022-10-27T10:23:00.939Z,998.4603
2022-10-27T10:24:01.091Z,998.4748
2022-10-27T10:25:01.240Z,998.4312
2022-10-27T10:26:00.393Z,998.4166
2022-10-27T10:27:00.556Z,998.4528
2022-10-27T10:28:00.689Z,998.4382
2022-10-27T10:29:00.882Z,998.4745
2022-10-27T10:30:01.001Z,998.3583
2022-10-27T10:31:01.151Z,998.4889
2022-10-27T10:32:00.306Z,998.4016
2022-10-27T10:33:00.456Z,998.4089
2022-10-27T10:34:00.594Z,998.3144
2022-10-27T10:35:00.744Z,998.4741
2022-10-27T10:36:00.886Z,998.3216
2022-10-27T10:37:01.037Z,998.4231
2022-10-27T10:38:05.057Z,998.2995
2022-10-27T10:39:00.413Z,998.5392
2022-10-27T10:40:00.464Z,998.532
2022-10-27T10:41:00.619Z,998.2995
2022-10-27T10:42:00.757Z,998.4519
2022-10-27T10:43:00.923Z,998.4517
2022-10-27T10:44:01.044Z,998.3572
2022-10-27T10:45:01.197Z,998.3643
2022-10-27T10:46:00.329Z,998.386
2022-10-27T10:47:00.486Z,998.3206
2022-10-27T10:48:00.638Z,998.3205
2022-10-27T10:49:00.806Z,998.2914
2022-10-27T10:50:00.920Z,998.3205
2022-10-27T10:51:01.067Z,998.5167
2022-10-27T10:52:01.217Z,998.3494
2022-10-27T10:53:00.366Z,998.3785
2022-10-27T10:54:00.537Z,998.3494
2022-10-27T10:55:00.687Z,998.6255
2022-10-27T10:56:00.811Z,998.3346
2022-10-27T10:58:01.106Z,998.4583
2022-10-27T10:59:01.262Z,998.3928
2022-10-27T11:00:00.427Z,998.4943
2022-10-27T11:01:00.731Z,998.4285
2022-10-27T11:02:00.795Z,998.552
2022-10-27T11:03:00.850Z,998.4208
2022-10-27T11:04:01.010Z,998.6171
2022-10-27T11:05:01.135Z,998.3626
2022-10-27T11:06:00.304Z,998.3918
2022-10-27T11:07:00.428Z,998.2972
2022-10-27T11:08:00.575Z,998.3626
2022-10-27T11:09:00.748Z,998.2417
2022-10-27T11:10:01.837Z,998.5009
2022-10-27T11:11:01.021Z,998.5079
2022-10-27T11:12:01.168Z,998.4497
2022-10-27T11:13:00.309Z,998.4715
2022-10-27T11:14:00.480Z,998.3335
2022-10-27T11:15:00.626Z,998.3552
2022-10-27T11:16:00.744Z,998.3333
2022-10-27T11:17:00.899Z,998.4133
2022-10-27T11:18:01.053Z,998.3842
2022-10-27T11:19:01.190Z,998.4133
2022-10-27T11:20:00.347Z,998.3112
2022-10-27T11:21:00.483Z,998.3694
2022-10-27T11:22:00.626Z,998.2193
2022-10-27T11:23:00.756Z,998.3549
2022-10-27T11:24:00.904Z,998.362
2022-10-27T11:25:01.062Z,998.2407
2022-10-27T11:26:01.191Z,998.4636
2022-10-27T11:27:00.341Z,998.274
2022-10-27T11:28:00.474Z,998.2329
2022-10-27T11:29:00.649Z,998.427
2022-10-27T11:30:00.874Z,998.3324
2022-10-27T11:31:00.921Z,998.2625
2022-10-27T11:32:01.082Z,998.116
2022-10-27T11:33:01.238Z,998.2816
2022-10-27T11:34:00.366Z,998.369
2022-10-27T11:35:00.572Z,998.2625
2022-10-27T11:36:00.667Z,998.2888
2022-10-27T11:37:00.820Z,998.2742
2022-10-27T11:38:00.975Z,998.2114
2022-10-27T11:39:01.111Z,998.116
2022-10-27T11:40:00.301Z,998.116
2022-10-27T11:41:00.499Z,998.1375
2022-10-27T11:42:00.555Z,998.0572
2022-10-27T11:43:00.701Z,998.1375
2022-10-27T11:44:06.044Z,998.0351
2022-10-27T11:45:01.013Z,998.0201
2022-10-27T11:46:01.179Z,998.1808
2022-10-27T11:47:00.303Z,997.9975
2022-10-27T11:48:00.442Z,998.1728